sensor_id;sensor_type;location;lat;lon;timestamp;temperature;humidity
51839;DHT22;37886;53.174;6.368;2023-06-24T00:02:14;15.40;99.90
51839;DHT22;37886;53.174;6.368;2023-06-24T00:04:39;15.40;99.90
51839;DHT22;37886;53.174;6.368;2023-06-24T00:07:05;15.40;99.90
51839;DHT22;37886;53.174;6.368;2023-06-24T00:09:32;15.30;99.90
51839;DHT22;37886;53.174;6.368;2023-06-24T00:11:58;15.30;99.90
51839;DHT22;37886;53.174;6.368;2023-06-24T00:14:25;15.30;99.90
51839;DHT22;37886;53.174;6.368;2023-06-24T00:16:52;15.30;99.90
51839;DHT22;37886;53.174;6.368;2023-06-24T00:19:23;15.20;99.90
51839;DHT22;37886;53.174;6.368;2023-06-24T00:21:49;15.30;99.90
51839;DHT22;37886;53.174;6.368;2023-06-24T00:24:19;15.20;99.90
51839;DHT22;37886;53.174;6.368;2023-06-24T00:26:46;15.20;99.90
51839;DHT22;37886;53.174;6.368;2023-06-24T00:29:12;15.20;99.90
51839;DHT22;37886;53.174;6.368;2023-06-24T00:31:38;15.10;99.90
51839;DHT22;37886;53.174;6.368;2023-06-24T00:34:04;15.10;99.90
51839;DHT22;37886;53.174;6.368;2023-06-24T00:36:30;15.00;99.90
51839;DHT22;37886;53.174;6.368;2023-06-24T00:38:57;15.00;99.90
51839;DHT22;37886;53.174;6.368;2023-06-24T00:41:32;15.00;99.90
51839;DHT22;37886;53.174;6.368;2023-06-24T00:43:59;15.00;99.90
51839;DHT22;37886;53.174;6.368;2023-06-24T00:46:25;15.00;99.90
51839;DHT22;37886;53.174;6.368;2023-06-24T00:48:52;15.00;99.90
51839;DHT22;37886;53.174;6.368;2023-06-24T00:51:19;14.90;99.90
51839;DHT22;37886;53.174;6.368;2023-06-24T00:53:47;14.90;99.90
51839;DHT22;37886;53.174;6.368;2023-06-24T00:56:14;14.90;99.90
51839;DHT22;37886;53.174;6.368;2023-06-24T00:58:42;14.90;99.90
51839;DHT22;37886;53.174;6.368;2023-06-24T01:01:09;14.90;99.90
51839;DHT22;37886;53.174;6.368;2023-06-24T01:03:37;14.90;99.90
51839;DHT22;37886;53.174;6.368;2023-06-24T01:06:03;14.80;99.90
51839;DHT22;37886;53.174;6.368;2023-06-24T01:08:28;14.80;99.90
51839;DHT22;37886;53.174;6.368;2023-06-24T01:10:54;14.80;99.90
51839;DHT22;37886;53.174;6.368;2023-06-24T01:13:20;14.80;99.90
51839;DHT22;37886;53.174;6.368;2023-06-24T01:15:46;14.80;99.90
51839;DHT22;37886;53.174;6.368;2023-06-24T01:23:52;14.70;99.90
51839;DHT22;37886;53.174;6.368;2023-06-24T01:34:56;14.70;99.90
51839;DHT22;37886;53.174;6.368;2023-06-24T01:37:32;14.70;99.90
51839;DHT22;37886;53.174;6.368;2023-06-24T01:40:05;14.70;99.90
51839;DHT22;37886;53.174;6.368;2023-06-24T01:42:41;14.70;99.90
51839;DHT22;37886;53.174;6.368;2023-06-24T01:45:12;14.70;99.90
51839;DHT22;37886;53.174;6.368;2023-06-24T01:47:40;14.70;99.90
51839;DHT22;37886;53.174;6.368;2023-06-24T01:50:11;14.70;99.90
51839;DHT22;37886;53.174;6.368;2023-06-24T01:52:39;14.70;99.90
51839;DHT22;37886;53.174;6.368;2023-06-24T01:55:09;14.60;99.90
51839;DHT22;37886;53.174;6.368;2023-06-24T01:57:37;14.60;99.90
51839;DHT22;37886;53.174;6.368;2023-06-24T02:00:04;14.60;99.90
51839;DHT22;37886;53.174;6.368;2023-06-24T02:02:34;14.60;99.90
51839;DHT22;37886;53.174;6.368;2023-06-24T02:05:02;14.60;99.90
51839;DHT22;37886;53.174;6.368;2023-06-24T02:07:29;14.70;99.90
51839;DHT22;37886;53.174;6.368;2023-06-24T02:09:55;14.70;99.90
51839;DHT22;37886;53.174;6.368;2023-06-24T02:12:24;14.70;99.90
51839;DHT22;37886;53.174;6.368;2023-06-24T02:14:51;14.70;99.90
51839;DHT22;37886;53.174;6.368;2023-06-24T02:17:17;14.60;99.90
51839;DHT22;37886;53.174;6.368;2023-06-24T02:19:44;14.60;99.90
51839;DHT22;37886;53.174;6.368;2023-06-24T02:22:11;14.60;99.90
51839;DHT22;37886;53.174;6.368;2023-06-24T02:24:38;14.70;99.90
51839;DHT22;37886;53.174;6.368;2023-06-24T02:27:07;14.60;99.90
51839;DHT22;37886;53.174;6.368;2023-06-24T02:29:35;14.70;99.90
51839;DHT22;37886;53.174;6.368;2023-06-24T02:32:02;14.60;99.90
51839;DHT22;37886;53.174;6.368;2023-06-24T02:34:28;14.70;99.90
51839;DHT22;37886;53.174;6.368;2023-06-24T02:36:54;14.70;99.90
51839;DHT22;37886;53.174;6.368;2023-06-24T02:39:20;14.70;99.90
51839;DHT22;37886;53.174;6.368;2023-06-24T02:41:46;14.70;99.90
51839;DHT22;37886;53.174;6.368;2023-06-24T02:44:13;14.70;99.90
51839;DHT22;37886;53.174;6.368;2023-06-24T02:46:40;14.70;99.90
51839;DHT22;37886;53.174;6.368;2023-06-24T02:49:07;14.70;99.90
51839;DHT22;37886;53.174;6.368;2023-06-24T02:51:34;14.70;99.90
51839;DHT22;37886;53.174;6.368;2023-06-24T02:54:01;14.70;99.90
51839;DHT22;37886;53.174;6.368;2023-06-24T02:56:27;14.70;99.90
51839;DHT22;37886;53.174;6.368;2023-06-24T02:58:54;14.70;99.90
51839;DHT22;37886;53.174;6.368;2023-06-24T03:01:20;14.70;99.90
51839;DHT22;37886;53.174;6.368;2023-06-24T03:03:53;14.70;99.90
51839;DHT22;37886;53.174;6.368;2023-06-24T03:06:20;14.70;99.90
51839;DHT22;37886;53.174;6.368;2023-06-24T03:08:47;14.70;99.90
51839;DHT22;37886;53.174;6.368;2023-06-24T03:11:13;14.60;99.90
51839;DHT22;37886;53.174;6.368;2023-06-24T03:13:40;14.60;99.90
51839;DHT22;37886;53.174;6.368;2023-06-24T03:16:05;14.60;99.90
51839;DHT22;37886;53.174;6.368;2023-06-24T03:18:31;14.60;99.90
51839;DHT22;37886;53.174;6.368;2023-06-24T03:20:57;14.60;99.90
51839;DHT22;37886;53.174;6.368;2023-06-24T03:23:22;14.60;99.90
51839;DHT22;37886;53.174;6.368;2023-06-24T03:25:48;14.60;99.90
51839;DHT22;37886;53.174;6.368;2023-06-24T03:28:14;14.60;99.90
51839;DHT22;37886;53.174;6.368;2023-06-24T03:30:39;14.60;99.90
51839;DHT22;37886;53.174;6.368;2023-06-24T03:33:05;14.60;99.90
51839;DHT22;37886;53.174;6.368;2023-06-24T03:35:31;14.60;99.90
51839;DHT22;37886;53.174;6.368;2023-06-24T03:37:58;14.60;99.90
51839;DHT22;37886;53.174;6.368;2023-06-24T03:40:24;14.60;99.90
51839;DHT22;37886;53.174;6.368;2023-06-24T03:42:49;14.70;99.90
51839;DHT22;37886;53.174;6.368;2023-06-24T03:45:15;14.70;99.90
51839;DHT22;37886;53.174;6.368;2023-06-24T03:47:41;14.70;99.90
51839;DHT22;37886;53.174;6.368;2023-06-24T03:50:07;14.70;99.90
51839;DHT22;37886;53.174;6.368;2023-06-24T03:52:33;14.80;99.90
51839;DHT22;37886;53.174;6.368;2023-06-24T03:54:58;14.80;99.90
51839;DHT22;37886;53.174;6.368;2023-06-24T03:57:24;14.80;99.90
51839;DHT22;37886;53.174;6.368;2023-06-24T03:59:50;14.80;99.90
51839;DHT22;37886;53.174;6.368;2023-06-24T04:02:15;14.90;99.90
51839;DHT22;37886;53.174;6.368;2023-06-24T04:04:41;14.90;99.90
51839;DHT22;37886;53.174;6.368;2023-06-24T04:07:07;15.00;99.90
51839;DHT22;37886;53.174;6.368;2023-06-24T04:09:35;15.10;99.90
51839;DHT22;37886;53.174;6.368;2023-06-24T04:12:01;15.10;99.90
51839;DHT22;37886;53.174;6.368;2023-06-24T04:14:28;15.20;99.90
51839;DHT22;37886;53.174;6.368;2023-06-24T04:16:54;15.30;99.90
51839;DHT22;37886;53.174;6.368;2023-06-24T04:19:19;15.40;99.90
51839;DHT22;37886;53.174;6.368;2023-06-24T04:21:45;15.40;99.90
51839;DHT22;37886;53.174;6.368;2023-06-24T04:24:11;15.50;99.90
51839;DHT22;37886;53.174;6.368;2023-06-24T04:26:36;15.50;99.90
51839;DHT22;37886;53.174;6.368;2023-06-24T04:29:02;15.60;99.90
51839;DHT22;37886;53.174;6.368;2023-06-24T04:31:28;15.60;99.90
51839;DHT22;37886;53.174;6.368;2023-06-24T04:33:53;15.60;99.90
51839;DHT22;37886;53.174;6.368;2023-06-24T04:36:19;15.60;99.90
51839;DHT22;37886;53.174;6.368;2023-06-24T04:38:45;15.60;99.90
51839;DHT22;37886;53.174;6.368;2023-06-24T04:41:11;15.70;99.90
51839;DHT22;37886;53.174;6.368;2023-06-24T04:43:36;15.80;99.90
51839;DHT22;37886;53.174;6.368;2023-06-24T04:46:02;15.90;99.90
51839;DHT22;37886;53.174;6.368;2023-06-24T04:48:28;15.90;99.90
51839;DHT22;37886;53.174;6.368;2023-06-24T04:50:54;16.00;99.90
51839;DHT22;37886;53.174;6.368;2023-06-24T04:53:21;16.10;99.90
51839;DHT22;37886;53.174;6.368;2023-06-24T04:55:47;16.20;99.90
51839;DHT22;37886;53.174;6.368;2023-06-24T04:58:12;16.30;99.90
51839;DHT22;37886;53.174;6.368;2023-06-24T05:00:40;16.30;99.90
51839;DHT22;37886;53.174;6.368;2023-06-24T05:03:05;16.40;99.90
51839;DHT22;37886;53.174;6.368;2023-06-24T05:05:31;16.50;99.90
51839;DHT22;37886;53.174;6.368;2023-06-24T05:07:57;16.60;99.90
51839;DHT22;37886;53.174;6.368;2023-06-24T05:10:22;16.70;99.90
51839;DHT22;37886;53.174;6.368;2023-06-24T05:12:48;16.80;99.90
51839;DHT22;37886;53.174;6.368;2023-06-24T05:15:14;16.90;99.90
51839;DHT22;37886;53.174;6.368;2023-06-24T05:17:40;17.00;99.90
51839;DHT22;37886;53.174;6.368;2023-06-24T05:20:06;17.10;99.90
51839;DHT22;37886;53.174;6.368;2023-06-24T05:22:32;17.20;99.90
51839;DHT22;37886;53.174;6.368;2023-06-24T05:24:57;17.20;99.90
51839;DHT22;37886;53.174;6.368;2023-06-24T05:27:23;17.30;99.90
51839;DHT22;37886;53.174;6.368;2023-06-24T05:29:49;17.50;99.90
51839;DHT22;37886;53.174;6.368;2023-06-24T05:32:14;17.60;99.90
51839;DHT22;37886;53.174;6.368;2023-06-24T05:34:43;17.70;99.90
51839;DHT22;37886;53.174;6.368;2023-06-24T05:37:09;17.80;99.90
51839;DHT22;37886;53.174;6.368;2023-06-24T05:39:34;18.00;99.90
51839;DHT22;37886;53.174;6.368;2023-06-24T05:42:00;18.10;99.90
51839;DHT22;37886;53.174;6.368;2023-06-24T05:44:26;18.30;99.90
51839;DHT22;37886;53.174;6.368;2023-06-24T05:46:51;18.40;99.90
51839;DHT22;37886;53.174;6.368;2023-06-24T05:49:17;18.60;99.90
51839;DHT22;37886;53.174;6.368;2023-06-24T05:51:43;18.60;99.90
51839;DHT22;37886;53.174;6.368;2023-06-24T05:54:09;18.60;99.90
51839;DHT22;37886;53.174;6.368;2023-06-24T05:56:34;18.60;99.90
51839;DHT22;37886;53.174;6.368;2023-06-24T05:59:01;18.60;99.90
51839;DHT22;37886;53.174;6.368;2023-06-24T06:01:27;18.70;99.90
51839;DHT22;37886;53.174;6.368;2023-06-24T06:03:55;18.80;99.90
51839;DHT22;37886;53.174;6.368;2023-06-24T06:06:21;19.00;99.90
51839;DHT22;37886;53.174;6.368;2023-06-24T06:08:49;19.10;99.90
51839;DHT22;37886;53.174;6.368;2023-06-24T06:11:14;19.20;99.90
51839;DHT22;37886;53.174;6.368;2023-06-24T06:13:40;19.40;99.90
51839;DHT22;37886;53.174;6.368;2023-06-24T06:16:06;19.60;99.90
51839;DHT22;37886;53.174;6.368;2023-06-24T06:18:32;19.80;99.90
51839;DHT22;37886;53.174;6.368;2023-06-24T06:20:58;20.00;99.90
51839;DHT22;37886;53.174;6.368;2023-06-24T06:23:24;20.30;99.90
51839;DHT22;37886;53.174;6.368;2023-06-24T06:25:50;20.40;99.90
51839;DHT22;37886;53.174;6.368;2023-06-24T06:28:16;20.60;99.90
51839;DHT22;37886;53.174;6.368;2023-06-24T06:30:42;20.80;99.90
51839;DHT22;37886;53.174;6.368;2023-06-24T06:33:07;20.90;99.90
51839;DHT22;37886;53.174;6.368;2023-06-24T06:35:33;21.00;99.90
51839;DHT22;37886;53.174;6.368;2023-06-24T06:37:59;21.20;99.90
51839;DHT22;37886;53.174;6.368;2023-06-24T06:40:25;21.30;99.90
51839;DHT22;37886;53.174;6.368;2023-06-24T06:42:54;21.40;99.90
51839;DHT22;37886;53.174;6.368;2023-06-24T06:45:19;21.50;99.90
51839;DHT22;37886;53.174;6.368;2023-06-24T06:47:45;21.70;99.90
51839;DHT22;37886;53.174;6.368;2023-06-24T06:50:11;21.70;99.90
51839;DHT22;37886;53.174;6.368;2023-06-24T06:52:36;21.80;99.90
51839;DHT22;37886;53.174;6.368;2023-06-24T06:55:03;21.80;99.90
51839;DHT22;37886;53.174;6.368;2023-06-24T06:57:29;21.90;99.90
51839;DHT22;37886;53.174;6.368;2023-06-24T06:59:56;21.80;99.90
51839;DHT22;37886;53.174;6.368;2023-06-24T07:02:21;21.90;99.90
51839;DHT22;37886;53.174;6.368;2023-06-24T07:04:47;22.10;99.90
51839;DHT22;37886;53.174;6.368;2023-06-24T07:07:14;22.10;99.90
51839;DHT22;37886;53.174;6.368;2023-06-24T07:09:39;22.10;99.90
51839;DHT22;37886;53.174;6.368;2023-06-24T07:12:06;22.20;99.90
51839;DHT22;37886;53.174;6.368;2023-06-24T07:14:32;22.40;99.90
51839;DHT22;37886;53.174;6.368;2023-06-24T07:16:58;23.00;99.90
51839;DHT22;37886;53.174;6.368;2023-06-24T07:19:23;23.30;99.90
51839;DHT22;37886;53.174;6.368;2023-06-24T07:21:49;23.00;99.90
51839;DHT22;37886;53.174;6.368;2023-06-24T07:24:15;23.30;99.90
51839;DHT22;37886;53.174;6.368;2023-06-24T07:26:40;23.10;99.90
51839;DHT22;37886;53.174;6.368;2023-06-24T07:29:07;23.70;99.90
51839;DHT22;37886;53.174;6.368;2023-06-24T07:31:33;23.90;99.90
51839;DHT22;37886;53.174;6.368;2023-06-24T07:33:58;24.00;99.90
51839;DHT22;37886;53.174;6.368;2023-06-24T07:36:24;23.90;99.90
51839;DHT22;37886;53.174;6.368;2023-06-24T07:38:50;23.90;99.90
51839;DHT22;37886;53.174;6.368;2023-06-24T07:41:15;23.80;99.90
51839;DHT22;37886;53.174;6.368;2023-06-24T07:43:41;23.90;99.90
51839;DHT22;37886;53.174;6.368;2023-06-24T07:46:07;23.90;99.90
51839;DHT22;37886;53.174;6.368;2023-06-24T07:48:32;24.00;99.90
51839;DHT22;37886;53.174;6.368;2023-06-24T07:50:58;24.00;99.90
51839;DHT22;37886;53.174;6.368;2023-06-24T07:53:24;23.90;99.90
51839;DHT22;37886;53.174;6.368;2023-06-24T07:55:50;24.20;99.90
51839;DHT22;37886;53.174;6.368;2023-06-24T07:58:15;24.10;99.90
51839;DHT22;37886;53.174;6.368;2023-06-24T08:00:41;24.60;99.90
51839;DHT22;37886;53.174;6.368;2023-06-24T08:03:08;24.30;99.90
51839;DHT22;37886;53.174;6.368;2023-06-24T08:05:33;24.20;99.90
51839;DHT22;37886;53.174;6.368;2023-06-24T08:07:59;24.10;99.90
51839;DHT22;37886;53.174;6.368;2023-06-24T08:10:25;24.10;99.90
51839;DHT22;37886;53.174;6.368;2023-06-24T08:12:51;24.10;99.90
51839;DHT22;37886;53.174;6.368;2023-06-24T08:15:17;24.00;99.90
51839;DHT22;37886;53.174;6.368;2023-06-24T08:17:42;24.00;99.90
51839;DHT22;37886;53.174;6.368;2023-06-24T08:20:08;24.20;99.90
51839;DHT22;37886;53.174;6.368;2023-06-24T08:22:34;24.70;99.90
51839;DHT22;37886;53.174;6.368;2023-06-24T08:25:00;24.50;99.90
51839;DHT22;37886;53.174;6.368;2023-06-24T08:27:25;24.30;99.90
51839;DHT22;37886;53.174;6.368;2023-06-24T08:29:51;24.40;99.90
51839;DHT22;37886;53.174;6.368;2023-06-24T08:32:17;24.60;99.90
51839;DHT22;37886;53.174;6.368;2023-06-24T08:34:42;24.60;99.90
51839;DHT22;37886;53.174;6.368;2023-06-24T08:37:08;25.00;99.90
51839;DHT22;37886;53.174;6.368;2023-06-24T08:39:34;24.90;99.90
51839;DHT22;37886;53.174;6.368;2023-06-24T08:41:59;24.60;99.90
51839;DHT22;37886;53.174;6.368;2023-06-24T08:44:25;24.80;99.90
51839;DHT22;37886;53.174;6.368;2023-06-24T08:46:51;25.10;99.90
51839;DHT22;37886;53.174;6.368;2023-06-24T08:49:28;25.20;99.90
51839;DHT22;37886;53.174;6.368;2023-06-24T08:52:00;25.70;99.90
51839;DHT22;37886;53.174;6.368;2023-06-24T08:54:28;25.60;99.90
51839;DHT22;37886;53.174;6.368;2023-06-24T08:56:54;25.50;99.90
51839;DHT22;37886;53.174;6.368;2023-06-24T08:59:20;25.40;99.90
51839;DHT22;37886;53.174;6.368;2023-06-24T09:01:50;25.70;99.90
51839;DHT22;37886;53.174;6.368;2023-06-24T09:04:15;25.70;99.90
51839;DHT22;37886;53.174;6.368;2023-06-24T09:06:41;25.40;99.90
51839;DHT22;37886;53.174;6.368;2023-06-24T09:09:18;25.50;99.90
51839;DHT22;37886;53.174;6.368;2023-06-24T09:11:58;25.30;99.90
51839;DHT22;37886;53.174;6.368;2023-06-24T09:14:24;25.00;99.90
51839;DHT22;37886;53.174;6.368;2023-06-24T09:16:54;24.90;99.90
51839;DHT22;37886;53.174;6.368;2023-06-24T09:19:24;24.80;99.90
51839;DHT22;37886;53.174;6.368;2023-06-24T09:21:51;25.10;99.90
51839;DHT22;37886;53.174;6.368;2023-06-24T09:24:19;25.40;99.90
51839;DHT22;37886;53.174;6.368;2023-06-24T09:26:45;25.60;99.90
51839;DHT22;37886;53.174;6.368;2023-06-24T09:29:12;25.60;99.90
51839;DHT22;37886;53.174;6.368;2023-06-24T09:31:48;25.70;99.90
51839;DHT22;37886;53.174;6.368;2023-06-24T09:34:15;25.90;99.90
51839;DHT22;37886;53.174;6.368;2023-06-24T09:36:47;25.80;99.90
51839;DHT22;37886;53.174;6.368;2023-06-24T09:39:16;26.00;99.90
51839;DHT22;37886;53.174;6.368;2023-06-24T09:41:42;26.30;99.90
51839;DHT22;37886;53.174;6.368;2023-06-24T09:44:11;26.40;99.90
51839;DHT22;37886;53.174;6.368;2023-06-24T09:46:41;26.50;99.90
51839;DHT22;37886;53.174;6.368;2023-06-24T09:49:08;26.40;99.90
51839;DHT22;37886;53.174;6.368;2023-06-24T09:51:40;26.50;99.90
51839;DHT22;37886;53.174;6.368;2023-06-24T09:54:10;26.70;99.90
51839;DHT22;37886;53.174;6.368;2023-06-24T09:56:39;26.80;99.90
51839;DHT22;37886;53.174;6.368;2023-06-24T09:59:05;26.80;99.90
51839;DHT22;37886;53.174;6.368;2023-06-24T10:01:44;26.90;99.90
51839;DHT22;37886;53.174;6.368;2023-06-24T10:04:21;26.70;99.90
51839;DHT22;37886;53.174;6.368;2023-06-24T10:06:49;27.10;99.90
51839;DHT22;37886;53.174;6.368;2023-06-24T10:09:16;27.10;99.90
51839;DHT22;37886;53.174;6.368;2023-06-24T10:11:45;27.10;99.90
51839;DHT22;37886;53.174;6.368;2023-06-24T10:14:11;27.30;99.90
51839;DHT22;37886;53.174;6.368;2023-06-24T10:16:37;27.70;99.90
51839;DHT22;37886;53.174;6.368;2023-06-24T10:19:03;27.90;99.90
51839;DHT22;37886;53.174;6.368;2023-06-24T10:21:52;28.00;99.90
51839;DHT22;37886;53.174;6.368;2023-06-24T10:24:31;27.60;99.60
51839;DHT22;37886;53.174;6.368;2023-06-24T10:27:07;27.50;99.90
51839;DHT22;37886;53.174;6.368;2023-06-24T10:29:37;27.80;99.90
51839;DHT22;37886;53.174;6.368;2023-06-24T10:32:07;28.50;99.90
51839;DHT22;37886;53.174;6.368;2023-06-24T10:34:45;27.90;99.60
51839;DHT22;37886;53.174;6.368;2023-06-24T10:37:19;27.60;99.90
51839;DHT22;37886;53.174;6.368;2023-06-24T10:42:33;29.10;98.60
51839;DHT22;37886;53.174;6.368;2023-06-24T10:47:34;29.20;97.60
51839;DHT22;37886;53.174;6.368;2023-06-24T10:50:00;28.70;97.10
51839;DHT22;37886;53.174;6.368;2023-06-24T10:52:26;28.90;96.50
51839;DHT22;37886;53.174;6.368;2023-06-24T10:54:52;29.40;96.80
51839;DHT22;37886;53.174;6.368;2023-06-24T10:57:23;28.70;97.40
51839;DHT22;37886;53.174;6.368;2023-06-24T10:59:51;28.00;97.60
51839;DHT22;37886;53.174;6.368;2023-06-24T11:02:18;28.20;97.90
51839;DHT22;37886;53.174;6.368;2023-06-24T11:04:45;27.80;97.80
51839;DHT22;37886;53.174;6.368;2023-06-24T11:07:11;27.20;98.80
51839;DHT22;37886;53.174;6.368;2023-06-24T11:09:37;27.20;99.10
51839;DHT22;37886;53.174;6.368;2023-06-24T11:12:03;27.20;99.20
51839;DHT22;37886;53.174;6.368;2023-06-24T11:14:29;27.00;99.20
51839;DHT22;37886;53.174;6.368;2023-06-24T11:16:55;26.90;98.80
51839;DHT22;37886;53.174;6.368;2023-06-24T11:19:20;27.00;98.20
51839;DHT22;37886;53.174;6.368;2023-06-24T11:21:46;27.10;98.00
51839;DHT22;37886;53.174;6.368;2023-06-24T11:24:12;27.80;97.10
51839;DHT22;37886;53.174;6.368;2023-06-24T11:26:38;28.60;96.20
51839;DHT22;37886;53.174;6.368;2023-06-24T11:29:13;28.00;96.10
51839;DHT22;37886;53.174;6.368;2023-06-24T11:31:39;28.40;95.80
51839;DHT22;37886;53.174;6.368;2023-06-24T11:34:04;28.30;95.40
51839;DHT22;37886;53.174;6.368;2023-06-24T11:36:34;27.70;96.40
51839;DHT22;37886;53.174;6.368;2023-06-24T11:39:00;27.70;96.10
51839;DHT22;37886;53.174;6.368;2023-06-24T11:41:26;27.40;96.70
51839;DHT22;37886;53.174;6.368;2023-06-24T11:43:53;27.10;97.20
51839;DHT22;37886;53.174;6.368;2023-06-24T11:46:29;26.90;97.40
51839;DHT22;37886;53.174;6.368;2023-06-24T11:49:07;27.10;97.50
51839;DHT22;37886;53.174;6.368;2023-06-24T11:51:34;27.80;97.10
51839;DHT22;37886;53.174;6.368;2023-06-24T11:54:03;28.60;96.30
51839;DHT22;37886;53.174;6.368;2023-06-24T11:56:41;29.20;96.00
51839;DHT22;37886;53.174;6.368;2023-06-24T11:59:15;30.80;94.60
51839;DHT22;37886;53.174;6.368;2023-06-24T12:01:58;30.50;94.50
51839;DHT22;37886;53.174;6.368;2023-06-24T12:04:31;29.90;94.70
51839;DHT22;37886;53.174;6.368;2023-06-24T12:06:58;29.60;95.10
51839;DHT22;37886;53.174;6.368;2023-06-24T12:09:24;29.90;95.00
51839;DHT22;37886;53.174;6.368;2023-06-24T12:11:50;29.70;94.70
51839;DHT22;37886;53.174;6.368;2023-06-24T12:14:16;28.20;94.80
51839;DHT22;37886;53.174;6.368;2023-06-24T12:16:42;28.30;95.50
51839;DHT22;37886;53.174;6.368;2023-06-24T12:19:08;29.10;95.20
51839;DHT22;37886;53.174;6.368;2023-06-24T12:21:34;28.80;95.00
51839;DHT22;37886;53.174;6.368;2023-06-24T12:24:04;28.50;95.60
51839;DHT22;37886;53.174;6.368;2023-06-24T12:26:30;28.30;96.20
51839;DHT22;37886;53.174;6.368;2023-06-24T12:28:56;28.70;95.90
51839;DHT22;37886;53.174;6.368;2023-06-24T12:31:25;29.80;95.10
51839;DHT22;37886;53.174;6.368;2023-06-24T12:33:51;30.20;94.80
51839;DHT22;37886;53.174;6.368;2023-06-24T12:36:21;29.70;94.20
51839;DHT22;37886;53.174;6.368;2023-06-24T12:38:47;29.10;95.70
51839;DHT22;37886;53.174;6.368;2023-06-24T12:41:13;29.10;95.80
51839;DHT22;37886;53.174;6.368;2023-06-24T12:43:39;29.40;95.00
51839;DHT22;37886;53.174;6.368;2023-06-24T12:46:05;28.80;95.30
51839;DHT22;37886;53.174;6.368;2023-06-24T12:48:30;28.70;96.20
51839;DHT22;37886;53.174;6.368;2023-06-24T12:50:56;29.40;95.30
51839;DHT22;37886;53.174;6.368;2023-06-24T12:53:22;30.00;93.70
51839;DHT22;37886;53.174;6.368;2023-06-24T12:55:48;30.20;94.90
51839;DHT22;37886;53.174;6.368;2023-06-24T12:58:14;29.80;94.40
51839;DHT22;37886;53.174;6.368;2023-06-24T13:00:44;29.70;94.40
51839;DHT22;37886;53.174;6.368;2023-06-24T13:03:09;30.30;94.20
51839;DHT22;37886;53.174;6.368;2023-06-24T13:05:35;31.40;93.40
51839;DHT22;37886;53.174;6.368;2023-06-24T13:08:01;31.70;92.20
51839;DHT22;37886;53.174;6.368;2023-06-24T13:10:27;31.20;92.50
51839;DHT22;37886;53.174;6.368;2023-06-24T13:12:52;31.50;92.90
51839;DHT22;37886;53.174;6.368;2023-06-24T13:15:19;30.70;92.90
51839;DHT22;37886;53.174;6.368;2023-06-24T13:17:44;31.70;92.40
51839;DHT22;37886;53.174;6.368;2023-06-24T13:20:10;32.50;91.90
51839;DHT22;37886;53.174;6.368;2023-06-24T13:22:36;31.60;92.30
51839;DHT22;37886;53.174;6.368;2023-06-24T13:25:02;30.50;92.70
51839;DHT22;37886;53.174;6.368;2023-06-24T13:27:28;31.00;93.10
51839;DHT22;37886;53.174;6.368;2023-06-24T13:29:53;31.80;92.40
51839;DHT22;37886;53.174;6.368;2023-06-24T13:32:19;31.60;92.60
51839;DHT22;37886;53.174;6.368;2023-06-24T13:34:45;30.90;92.80
51839;DHT22;37886;53.174;6.368;2023-06-24T13:37:11;31.00;93.30
51839;DHT22;37886;53.174;6.368;2023-06-24T13:39:36;30.50;93.10
51839;DHT22;37886;53.174;6.368;2023-06-24T13:42:02;30.20;93.20
51839;DHT22;37886;53.174;6.368;2023-06-24T13:44:28;29.70;93.60
51839;DHT22;37886;53.174;6.368;2023-06-24T13:46:53;29.80;94.20
51839;DHT22;37886;53.174;6.368;2023-06-24T13:49:19;29.10;94.20
51839;DHT22;37886;53.174;6.368;2023-06-24T13:51:45;28.90;94.30
51839;DHT22;37886;53.174;6.368;2023-06-24T13:54:11;30.40;93.40
51839;DHT22;37886;53.174;6.368;2023-06-24T13:56:37;31.00;92.80
51839;DHT22;37886;53.174;6.368;2023-06-24T13:59:03;30.00;92.10
51839;DHT22;37886;53.174;6.368;2023-06-24T14:01:29;30.20;92.80
51839;DHT22;37886;53.174;6.368;2023-06-24T14:03:55;30.80;92.10
51839;DHT22;37886;53.174;6.368;2023-06-24T14:06:22;31.30;92.00
51839;DHT22;37886;53.174;6.368;2023-06-24T14:08:49;31.80;91.20
51839;DHT22;37886;53.174;6.368;2023-06-24T14:11:15;32.00;91.20
51839;DHT22;37886;53.174;6.368;2023-06-24T14:13:42;32.10;90.30
51839;DHT22;37886;53.174;6.368;2023-06-24T14:16:08;32.00;90.40
51839;DHT22;37886;53.174;6.368;2023-06-24T14:18:34;31.80;89.80
51839;DHT22;37886;53.174;6.368;2023-06-24T14:21:01;32.70;90.50
51839;DHT22;37886;53.174;6.368;2023-06-24T14:23:28;33.00;89.10
51839;DHT22;37886;53.174;6.368;2023-06-24T14:25:54;33.00;87.80
51839;DHT22;37886;53.174;6.368;2023-06-24T14:28:21;32.30;90.10
51839;DHT22;37886;53.174;6.368;2023-06-24T14:30:47;33.20;89.10
51839;DHT22;37886;53.174;6.368;2023-06-24T14:33:13;33.50;88.40
51839;DHT22;37886;53.174;6.368;2023-06-24T14:35:39;33.30;89.70
51839;DHT22;37886;53.174;6.368;2023-06-24T14:38:05;33.70;87.80
51839;DHT22;37886;53.174;6.368;2023-06-24T14:40:32;33.60;88.80
51839;DHT22;37886;53.174;6.368;2023-06-24T14:42:59;33.60;88.50
51839;DHT22;37886;53.174;6.368;2023-06-24T14:45:24;32.80;89.10
51839;DHT22;37886;53.174;6.368;2023-06-24T14:47:50;32.50;89.20
51839;DHT22;37886;53.174;6.368;2023-06-24T14:50:17;31.70;89.00
51839;DHT22;37886;53.174;6.368;2023-06-24T14:52:42;32.20;89.50
51839;DHT22;37886;53.174;6.368;2023-06-24T14:55:08;32.30;89.10
51839;DHT22;37886;53.174;6.368;2023-06-24T14:57:35;31.70;90.30
51839;DHT22;37886;53.174;6.368;2023-06-24T15:00:02;30.90;90.30
51839;DHT22;37886;53.174;6.368;2023-06-24T15:02:28;30.10;90.90
51839;DHT22;37886;53.174;6.368;2023-06-24T15:04:54;29.50;91.50
51839;DHT22;37886;53.174;6.368;2023-06-24T15:07:19;29.10;92.00
51839;DHT22;37886;53.174;6.368;2023-06-24T15:09:45;29.30;91.60
51839;DHT22;37886;53.174;6.368;2023-06-24T15:12:11;29.30;91.70
51839;DHT22;37886;53.174;6.368;2023-06-24T15:14:37;29.00;92.10
51839;DHT22;37886;53.174;6.368;2023-06-24T15:17:04;28.90;93.80
51839;DHT22;37886;53.174;6.368;2023-06-24T15:19:29;28.90;94.40
51839;DHT22;37886;53.174;6.368;2023-06-24T15:21:55;28.80;94.80
51839;DHT22;37886;53.174;6.368;2023-06-24T15:24:21;28.90;95.00
51839;DHT22;37886;53.174;6.368;2023-06-24T15:26:46;29.00;95.20
51839;DHT22;37886;53.174;6.368;2023-06-24T15:29:12;28.80;95.20
51839;DHT22;37886;53.174;6.368;2023-06-24T15:31:38;28.90;95.60
51839;DHT22;37886;53.174;6.368;2023-06-24T15:34:04;28.60;95.30
51839;DHT22;37886;53.174;6.368;2023-06-24T15:36:29;28.00;95.90
51839;DHT22;37886;53.174;6.368;2023-06-24T15:38:55;27.70;96.70
51839;DHT22;37886;53.174;6.368;2023-06-24T15:41:22;27.60;96.90
51839;DHT22;37886;53.174;6.368;2023-06-24T15:43:48;27.40;97.30
51839;DHT22;37886;53.174;6.368;2023-06-24T15:46:13;27.50;97.40
51839;DHT22;37886;53.174;6.368;2023-06-24T15:48:39;27.30;97.50